Time;durP1;ratioP1;P1;durP2;ratioP2;P2;SDS_P1;SDS_P2;PMS_P1;PMS_P2;Temp;Humidity;BMP_temperature;BMP_pressure;BME280_temperature;BME280_humidity;BME280_pressure;Samples;Min_cycle;Max_cycle;Signal;HPM_P1;HPM_P2
2022/06/09 00:01:12;;;;;;;11.10;3.92;;;;;;;13.41;100.00;100738.81;5097396;28;20034;-58
2022/06/09 00:04:10;;;;;;;17.52;5.00;;;;;;;13.32;100.00;100728.53;5097380;28;20023;-57
2022/06/09 00:06:44;;;;;;;13.07;4.50;;;;;;;13.34;100.00;100739.00;5096530;28;20377;-57
2022/06/09 00:09:09;;;;;;;15.32;4.38;;;;;;;13.30;100.00;100746.13;5096965;28;20039;-57
2022/06/09 00:11:40;;;;;;;12.63;4.65;;;;;;;13.24;100.00;100743.63;5097541;28;20027;-58
2022/06/09 00:14:07;;;;;;;18.92;5.10;;;;;;;13.24;100.00;100751.53;5097114;28;20032;-58
2022/06/09 00:16:34;;;;;;;16.30;4.47;;;;;;;13.26;100.00;100759.38;5097064;28;20035;-57
2022/06/09 00:19:00;;;;;;;18.35;5.03;;;;;;;13.19;100.00;100754.25;5096855;28;20032;-57
2022/06/09 00:21:25;;;;;;;17.83;5.07;;;;;;;13.15;100.00;100744.75;5096871;28;20047;-57
2022/06/09 00:23:51;;;;;;;16.52;4.50;;;;;;;13.22;100.00;100753.31;5097197;28;20028;-57
2022/06/09 00:26:16;;;;;;;17.45;4.70;;;;;;;13.26;100.00;100760.22;5097092;28;20142;-58
2022/06/09 00:28:42;;;;;;;19.38;4.97;;;;;;;13.19;100.00;100748.13;5096829;28;20407;-58
2022/06/09 00:31:07;;;;;;;15.45;4.75;;;;;;;13.20;100.00;100750.72;5096720;28;20118;-58
2022/06/09 00:33:33;;;;;;;14.77;4.63;;;;;;;13.23;100.00;100755.91;5096710;28;20036;-58
2022/06/09 00:35:58;;;;;;;15.35;4.97;;;;;;;13.22;100.00;100753.31;5096673;28;20103;-58
2022/06/09 00:38:23;;;;;;;16.08;4.78;;;;;;;13.23;100.00;100750.66;5096799;28;20055;-58
2022/06/09 00:40:49;;;;;;;22.27;4.90;;;;;;;13.26;100.00;100757.59;5096902;28;20110;-58
2022/06/09 00:43:15;;;;;;;20.60;5.03;;;;;;;13.24;100.00;100756.78;5096726;28;20032;-59
2022/06/09 00:45:47;;;;;;;16.83;4.63;;;;;;;13.21;100.00;100757.72;5096461;28;20105;-57
2022/06/09 00:48:31;;;;;;;16.63;5.22;;;;;;;13.17;100.00;100755.19;5096507;28;20103;-59
2022/06/09 00:51:05;;;;;;;20.35;4.93;;;;;;;13.13;100.00;100757.03;5096689;28;20126;-58
2022/06/09 00:53:36;;;;;;;21.75;5.60;;;;;;;13.08;100.00;100773.81;5096478;28;20032;-58
2022/06/09 00:56:03;;;;;;;20.63;5.38;;;;;;;13.02;100.00;100772.19;5096685;28;20439;-58
2022/06/09 00:58:32;;;;;;;17.80;5.22;;;;;;;13.00;100.00;100767.84;5096332;28;20119;-58
2022/06/09 01:01:01;;;;;;;15.00;5.13;;;;;;;12.96;100.00;100768.84;5096224;28;20043;-58
2022/06/09 01:03:35;;;;;;;17.98;5.22;;;;;;;12.93;100.00;100771.56;5096191;28;20047;-58
2022/06/09 01:06:06;;;;;;;17.35;5.03;;;;;;;12.90;100.00;100768.09;5096248;28;20054;-58
2022/06/09 01:08:34;;;;;;;23.92;5.38;;;;;;;12.84;100.00;100768.22;5096198;28;20327;-58
2022/06/09 01:10:59;;;;;;;18.10;5.82;;;;;;;12.80;100.00;100763.97;5095983;28;20024;-59
2022/06/09 01:13:25;;;;;;;18.50;5.65;;;;;;;12.85;100.00;100764.72;5096156;28;20039;-58
2022/06/09 01:15:58;;;;;;;22.02;5.65;;;;;;;12.84;100.00;100767.38;5096404;28;20052;-59
2022/06/09 01:18:40;;;;;;;17.92;5.43;;;;;;;12.90;100.00;100772.47;5095480;28;20047;-58
2022/06/09 01:21:27;;;;;;;23.23;5.93;;;;;;;12.89;100.00;100769.00;5095780;28;20036;-58
2022/06/09 01:24:30;;;;;;;18.58;5.45;;;;;;;12.94;100.00;100778.53;5095803;28;20051;-58
2022/06/09 01:27:10;;;;;;;20.17;6.30;;;;;;;12.93;100.00;100774.19;5096045;28;20051;-59
2022/06/09 01:29:44;;;;;;;18.60;5.78;;;;;;;12.91;100.00;100779.47;5095600;28;20081;-59
2022/06/09 01:32:32;;;;;;;21.70;5.88;;;;;;;12.95;100.00;100775.88;5095757;28;20028;-58
2022/06/09 01:35:23;;;;;;;27.45;6.93;;;;;;;12.92;100.00;100778.56;5095662;28;20031;-58
2022/06/09 01:37:54;;;;;;;22.45;7.05;;;;;;;12.95;100.00;100786.38;5095585;28;20173;-58
2022/06/09 01:40:20;;;;;;;20.67;6.90;;;;;;;12.94;100.00;100792.53;5095297;28;20099;-58
2022/06/09 01:42:48;;;;;;;21.63;6.88;;;;;;;12.96;100.00;100788.09;5095285;28;20038;-58
2022/06/09 01:45:22;;;;;;;27.17;7.22;;;;;;;12.94;100.00;100786.41;5095418;28;20039;-58
2022/06/09 01:48:05;;;;;;;26.33;6.28;;;;;;;12.98;100.00;100791.56;5095357;28;20043;-59
2022/06/09 01:50:36;;;;;;;22.58;6.25;;;;;;;12.94;100.00;100795.16;5095491;28;20116;-58
2022/06/09 01:53:06;;;;;;;26.63;6.95;;;;;;;12.99;100.00;100797.69;5095497;28;20020;-59
2022/06/09 01:55:37;;;;;;;19.77;6.35;;;;;;;12.96;100.00;100801.25;5094799;28;20032;-58
2022/06/09 01:58:05;;;;;;;25.08;6.90;;;;;;;12.92;100.00;100796.09;5095227;28;20028;-59
2022/06/09 02:00:31;;;;;;;22.05;6.60;;;;;;;12.90;100.00;100804.00;5095145;28;20032;-58
2022/06/09 02:03:07;;;;;;;25.40;6.95;;;;;;;12.82;100.00;100792.78;5095004;28;20331;-58
2022/06/09 02:05:39;;;;;;;20.65;7.10;;;;;;;12.82;100.00;100798.06;5095476;28;20119;-58
2022/06/09 02:08:07;;;;;;;26.88;7.53;;;;;;;12.77;100.00;100799.94;5095676;28;20036;-58
2022/06/09 02:10:36;;;;;;;25.05;7.30;;;;;;;12.78;100.00;100801.66;5095145;28;20036;-58
2022/06/09 02:13:06;;;;;;;20.58;6.97;;;;;;;12.73;100.00;100808.78;5094991;28;20032;-58
2022/06/09 02:15:45;;;;;;;26.13;7.28;;;;;;;12.68;100.00;100808.00;5095382;28;20061;-58
2022/06/09 02:18:17;;;;;;;27.30;7.10;;;;;;;12.76;100.00;100814.84;5095198;28;20040;-59
2022/06/09 02:20:48;;;;;;;27.30;7.28;;;;;;;12.74;100.00;100818.38;5095002;28;20055;-58
2022/06/09 02:23:14;;;;;;;25.10;7.57;;;;;;;12.72;100.00;100820.19;5094971;28;20111;-59
2022/06/09 02:25:40;;;;;;;22.17;7.40;;;;;;;12.73;100.00;100817.53;5094760;28;20048;-59
2022/06/09 02:28:07;;;;;;;24.75;7.88;;;;;;;12.75;100.00;100820.97;5094782;28;20020;-58
2022/06/09 02:30:33;;;;;;;24.70;7.43;;;;;;;12.72;100.00;100821.03;5094680;28;20038;-58
2022/06/09 02:32:58;;;;;;;27.35;7.53;;;;;;;12.71;100.00;100829.81;5094697;28;20048;-58
2022/06/09 02:35:24;;;;;;;22.05;8.23;;;;;;;12.72;100.00;100835.94;5094830;28;20028;-58
2022/06/09 02:37:49;;;;;;;32.38;8.85;;;;;;;12.69;100.00;100830.75;5094944;28;20469;-58
2022/06/09 02:40:14;;;;;;;27.35;8.13;;;;;;;12.67;100.00;100832.53;5094798;28;20032;-58
2022/06/09 02:42:40;;;;;;;30.73;8.30;;;;;;;12.66;100.00;100836.91;5094662;28;20466;-59
2022/06/09 02:45:07;;;;;;;29.50;8.35;;;;;;;12.65;100.00;100837.81;5094568;28;20458;-58
2022/06/09 02:47:32;;;;;;;26.20;8.52;;;;;;;12.63;100.00;100838.78;5094797;28;20120;-58
2022/06/09 02:49:57;;;;;;;28.67;8.30;;;;;;;12.61;100.00;100837.94;5094644;28;20501;-58
2022/06/09 02:52:23;;;;;;;28.20;8.75;;;;;;;12.57;100.00;100836.28;5094989;28;20054;-58
2022/06/09 02:54:48;;;;;;;24.83;8.55;;;;;;;12.60;100.00;100847.56;5094465;28;20080;-59
2022/06/09 02:57:13;;;;;;;27.33;7.95;;;;;;;12.56;100.00;100830.16;5094823;28;20039;-58
2022/06/09 02:59:39;;;;;;;24.83;8.13;;;;;;;12.57;100.00;100849.41;5094566;28;20063;-57
2022/06/09 03:02:04;;;;;;;27.67;8.70;;;;;;;12.58;100.00;100844.13;5094584;28;20439;-58
2022/06/09 03:04:29;;;;;;;24.98;8.88;;;;;;;12.60;100.00;100854.59;5094758;28;20031;-58
2022/06/09 03:06:55;;;;;;;28.20;9.02;;;;;;;12.57;100.00;100858.13;5094564;28;20028;-58
2022/06/09 03:09:20;;;;;;;30.27;9.43;;;;;;;12.58;100.00;100870.38;5098416;28;20020;-58
2022/06/09 03:11:45;;;;;;;29.05;8.50;;;;;;;12.57;100.00;100873.88;5098276;28;20028;-58
2022/06/09 03:14:11;;;;;;;24.20;8.45;;;;;;;12.64;100.00;100869.38;5098514;28;20423;-58
2022/06/09 03:16:37;;;;;;;27.45;8.73;;;;;;;12.61;100.00;100886.06;5098548;28;20422;-58
2022/06/09 03:19:02;;;;;;;24.73;8.80;;;;;;;12.61;100.00;100880.81;5098337;28;20064;-58
2022/06/09 03:21:28;;;;;;;25.15;8.45;;;;;;;12.61;100.00;100886.06;5098590;28;20036;-58
2022/06/09 03:23:53;;;;;;;29.70;8.98;;;;;;;12.68;100.00;100889.41;5098013;28;20057;-58
2022/06/09 03:26:19;;;;;;;31.23;9.77;;;;;;;12.63;100.00;100893.91;5098111;28;20413;-58
2022/06/09 03:28:44;;;;;;;25.67;9.13;;;;;;;12.61;100.00;100893.06;5097991;28;20032;-58
2022/06/09 03:31:09;;;;;;;32.35;9.63;;;;;;;12.59;100.00;100893.09;5097935;28;20034;-58
2022/06/09 03:33:35;;;;;;;26.40;9.07;;;;;;;12.59;100.00;100894.88;5097875;28;20034;-58
2022/06/09 03:36:00;;;;;;;25.20;9.20;;;;;;;12.54;100.00;100901.06;5098064;28;20112;-58
2022/06/09 03:38:25;;;;;;;24.42;8.50;;;;;;;12.50;100.00;100904.63;5098059;28;20032;-58
2022/06/09 03:40:51;;;;;;;30.98;9.32;;;;;;;12.48;100.00;100916.94;5097779;28;20028;-59
2022/06/09 03:43:16;;;;;;;27.27;9.02;;;;;;;12.42;100.00;100918.84;5097881;28;20503;-57
2022/06/09 03:45:41;;;;;;;30.25;9.35;;;;;;;12.36;100.00;100917.19;5097849;28;20111;-58
2022/06/09 03:48:07;;;;;;;30.92;10.00;;;;;;;12.35;100.00;100922.47;5097489;28;20039;-58
2022/06/09 03:50:33;;;;;;;29.15;9.60;;;;;;;12.33;100.00;100926.88;5097748;28;20024;-58
2022/06/09 03:52:59;;;;;;;33.20;10.10;;;;;;;12.27;100.00;100927.00;5097703;28;20032;-59
2022/06/09 03:55:25;;;;;;;31.05;10.02;;;;;;;12.27;100.00;100925.25;5097576;28;20036;-58
2022/06/09 03:57:51;;;;;;;31.42;9.38;;;;;;;12.27;100.00;100933.13;5097642;28;20030;-58
2022/06/09 04:00:20;;;;;;;30.60;9.52;;;;;;;12.27;100.00;100933.13;5097277;28;20385;-58
2022/06/09 04:02:46;;;;;;;31.00;9.85;;;;;;;12.28;100.00;100940.09;5097455;28;20481;-58
2022/06/09 04:05:13;;;;;;;30.52;10.15;;;;;;;12.28;100.00;100947.97;5097303;28;20195;-58
2022/06/09 04:07:39;;;;;;;30.67;9.88;;;;;;;12.29;100.00;100948.84;5097760;28;20055;-58
2022/06/09 04:10:05;;;;;;;25.17;9.57;;;;;;;12.29;100.00;100952.31;5097277;28;20031;-59
2022/06/09 04:12:31;;;;;;;32.13;10.15;;;;;;;12.28;100.00;100958.47;5096794;28;20419;-58
2022/06/09 04:14:56;;;;;;;34.97;10.30;;;;;;;12.24;100.00;100954.16;5097025;28;20028;-58
2022/06/09 04:17:21;;;;;;;30.45;10.05;;;;;;;12.25;100.00;100955.03;5097222;28;20054;-58
2022/06/09 04:19:46;;;;;;;29.70;10.50;;;;;;;12.27;100.00;100955.88;5096984;28;20085;-58
2022/06/09 04:22:12;;;;;;;24.50;9.35;;;;;;;12.29;100.00;100961.94;5097511;28;20036;-58
2022/06/09 04:24:38;;;;;;;26.50;9.85;;;;;;;12.29;100.00;100967.19;5096406;28;20102;-58
2022/06/09 04:27:04;;;;;;;26.88;10.32;;;;;;;12.28;100.00;100966.34;5096427;28;20044;-58
2022/06/09 04:29:30;;;;;;;25.75;10.13;;;;;;;12.32;100.00;100961.88;5096870;28;20063;-58
2022/06/09 04:31:55;;;;;;;30.90;10.35;;;;;;;12.34;100.00;100971.44;5096787;28;20430;-58
2022/06/09 04:34:20;;;;;;;29.77;9.63;;;;;;;12.36;100.00;100960.94;5096670;28;20036;-58
2022/06/09 04:36:46;;;;;;;28.02;9.65;;;;;;;12.40;100.00;100975.72;5096986;28;20042;-58
2022/06/09 04:39:11;;;;;;;30.20;9.85;;;;;;;12.36;100.00;100972.28;5096778;28;20038;-58
2022/06/09 04:41:37;;;;;;;27.05;9.93;;;;;;;12.39;100.00;100980.09;5096639;28;20028;-58
2022/06/09 04:44:03;;;;;;;26.40;10.23;;;;;;;12.41;100.00;100980.09;5096369;28;20024;-59
2022/06/09 04:46:29;;;;;;;25.67;10.00;;;;;;;12.44;100.00;100988.78;5096813;28;20384;-58
2022/06/09 04:48:55;;;;;;;31.60;11.07;;;;;;;12.45;100.00;100985.25;5096440;28;20038;-58
2022/06/09 04:51:22;;;;;;;31.98;10.88;;;;;;;12.53;100.00;100993.84;5096728;28;20115;-58
2022/06/09 04:53:49;;;;;;;25.55;11.15;;;;;;;12.55;100.00;100992.03;5096271;28;20460;-57
2022/06/09 04:56:15;;;;;;;24.17;9.60;;;;;;;12.60;100.00;100993.72;5096205;28;20096;-58
2022/06/09 04:58:41;;;;;;;36.53;11.23;;;;;;;12.58;100.00;100998.13;5096174;28;20047;-58
2022/06/09 05:01:14;;;;;;;31.08;10.82;;;;;;;12.62;100.00;101003.31;5096214;28;20139;-58
2022/06/09 05:03:40;;;;;;;27.95;10.48;;;;;;;12.64;100.00;101004.13;5095984;28;20028;-58
2022/06/09 05:06:05;;;;;;;31.23;10.98;;;;;;;12.65;100.00;101011.09;5096144;28;20027;-59
2022/06/09 05:08:30;;;;;;;29.33;10.82;;;;;;;12.71;100.00;101013.63;5096543;28;20032;-59
2022/06/09 05:10:55;;;;;;;29.90;11.07;;;;;;;12.78;100.00;101022.25;5095933;28;20055;-58
2022/06/09 05:13:21;;;;;;;32.22;11.18;;;;;;;12.86;100.00;101026.44;5096143;28;20119;-58
2022/06/09 05:15:52;;;;;;;31.33;10.55;;;;;;;12.97;100.00;101035.88;5096133;28;20426;-58
2022/06/09 05:18:20;;;;;;;29.33;10.38;;;;;;;13.15;100.00;101033.78;5096009;28;20103;-58
2022/06/09 05:20:48;;;;;;;27.52;10.93;;;;;;;13.32;100.00;101043.94;5095990;28;20024;-58
2022/06/09 05:23:13;;;;;;;25.55;10.13;;;;;;;13.58;100.00;101044.22;5096026;28;20350;-58
2022/06/09 05:25:39;;;;;;;28.30;9.85;;;;;;;13.64;100.00;101018.69;5095549;28;20039;-58
2022/06/09 05:28:04;;;;;;;31.13;10.40;;;;;;;13.92;100.00;101039.03;5095784;28;20107;-59
2022/06/09 05:30:30;;;;;;;24.95;10.10;;;;;;;14.08;100.00;101042.16;5094993;28;20046;-58
2022/06/09 05:32:55;;;;;;;22.45;9.15;;;;;;;14.24;100.00;101043.50;5095882;28;20032;-58
2022/06/09 05:35:21;;;;;;;26.58;9.50;;;;;;;14.35;100.00;101053.78;5095637;28;20024;-59
2022/06/09 05:46:01;;;;;;;32.03;9.15;;;;;;;13.95;100.00;101074.94;5096096;28;20354;-56
2022/06/09 05:48:27;;;;;;;24.55;8.80;;;;;;;13.86;100.00;101081.25;5095244;28;20028;-56
2022/06/09 05:50:54;;;;;;;22.27;8.80;;;;;;;13.84;100.00;101090.13;5095410;28;20034;-56
2022/06/09 05:53:19;;;;;;;21.70;8.18;;;;;;;13.84;100.00;101085.72;5095459;28;20111;-57
2022/06/09 05:55:45;;;;;;;24.23;8.68;;;;;;;13.96;100.00;101089.81;5095969;28;20399;-56
2022/06/09 05:58:10;;;;;;;24.17;8.85;;;;;;;14.19;100.00;101092.78;5095559;28;20119;-56
2022/06/09 06:00:36;;;;;;;17.38;8.38;;;;;;;14.38;100.00;101095.81;5095088;28;20047;-56
2022/06/09 06:03:01;;;;;;;16.67;8.77;;;;;;;14.55;100.00;101096.28;5094972;28;20112;-57
2022/06/09 06:08:10;;;;;;;19.90;8.07;;;;;;;15.02;100.00;101109.09;5095044;28;20047;-56
2022/06/09 06:10:35;;;;;;;25.63;8.52;;;;;;;15.25;100.00;101109.31;5094581;28;20048;-56
2022/06/09 06:13:01;;;;;;;19.92;7.90;;;;;;;15.38;100.00;101110.72;5095064;28;20038;-56
2022/06/09 06:15:26;;;;;;;24.67;7.95;;;;;;;15.38;100.00;101116.00;5114496;28;20084;-56
2022/06/09 06:17:54;;;;;;;19.73;7.50;;;;;;;15.41;100.00;101123.78;5115429;28;20035;-55
2022/06/09 06:20:20;;;;;;;15.63;7.43;;;;;;;15.39;100.00;101124.75;5115281;28;20027;-56
2022/06/09 06:22:45;;;;;;;21.17;7.50;;;;;;;15.41;100.00;101125.59;5115232;28;20077;-59
2022/06/09 06:25:10;;;;;;;18.88;7.13;;;;;;;15.38;100.00;101134.44;5114982;28;20051;-57
2022/06/09 06:27:35;;;;;;;20.02;6.75;;;;;;;15.37;100.00;101143.25;5115113;28;20031;-58
2022/06/09 06:30:01;;;;;;;21.55;7.45;;;;;;;15.36;100.00;101135.41;5114921;28;20041;-57
2022/06/09 06:32:26;;;;;;;18.35;6.90;;;;;;;15.34;100.00;101140.72;5115362;28;20039;-57
2022/06/09 06:34:51;;;;;;;20.65;8.05;;;;;;;15.40;100.00;101150.22;5114997;28;20027;-58
2022/06/09 06:37:17;;;;;;;20.33;7.72;;;;;;;15.30;100.00;101131.16;5114836;28;20134;-57
2022/06/09 06:39:42;;;;;;;17.70;7.28;;;;;;;15.39;100.00;101151.13;5115218;28;20392;-58
2022/06/09 06:42:08;;;;;;;18.83;6.80;;;;;;;15.32;100.00;101153.94;5117007;28;20114;-59
2022/06/09 06:44:33;;;;;;;21.23;7.35;;;;;;;15.31;100.00;101156.59;5119454;28;20451;-57
2022/06/09 06:46:58;;;;;;;19.17;7.45;;;;;;;15.29;100.00;101164.56;5119241;28;20028;-58
2022/06/09 06:49:23;;;;;;;17.88;7.20;;;;;;;15.30;100.00;101166.28;5119389;28;20027;-57
2022/06/09 06:51:49;;;;;;;18.48;6.60;;;;;;;15.32;100.00;101174.16;5119305;28;20418;-58
2022/06/09 06:54:14;;;;;;;17.52;6.60;;;;;;;15.29;100.00;101168.97;5119343;28;20027;-58
2022/06/09 06:56:39;;;;;;;12.68;6.57;;;;;;;15.34;100.00;101182.91;5119050;28;20063;-59
2022/06/09 06:59:05;;;;;;;13.43;6.10;;;;;;;15.42;100.00;101177.41;5119248;28;20073;-57
2022/06/09 07:01:30;;;;;;;17.52;6.20;;;;;;;15.51;100.00;101185.06;5119400;28;20059;-57
2022/06/09 07:03:57;;;;;;;16.50;6.60;;;;;;;15.57;100.00;101191.06;5118144;28;20135;-58
2022/06/09 07:06:22;;;;;;;14.65;6.65;;;;;;;15.66;100.00;101190.81;5119058;28;20042;-57
2022/06/09 07:08:47;;;;;;;13.45;6.70;;;;;;;15.70;100.00;101191.59;5119346;28;20503;-57
2022/06/09 07:11:13;;;;;;;14.13;6.45;;;;;;;15.63;100.00;101182.97;5118915;28;20023;-58
2022/06/09 07:13:39;;;;;;;13.05;5.93;;;;;;;15.71;100.00;101192.44;5115609;28;20433;-58
2022/06/09 07:16:06;;;;;;;14.95;5.90;;;;;;;15.76;100.00;101204.56;5118923;28;20295;-57
2022/06/09 07:18:32;;;;;;;16.00;6.28;;;;;;;15.83;100.00;101208.78;5119027;28;20036;-58
2022/06/09 07:20:58;;;;;;;13.77;5.40;;;;;;;15.84;99.69;101204.38;5118720;28;20023;-58
2022/06/09 07:23:26;;;;;;;10.85;5.05;;;;;;;15.86;100.00;101206.06;5118748;28;20038;-59
2022/06/09 07:25:52;;;;;;;13.18;5.22;;;;;;;15.93;100.00;101220.78;5107805;28;20482;-59
2022/06/09 07:28:17;;;;;;;10.48;4.20;;;;;;;15.99;100.00;101215.34;5108633;28;20104;-59
2022/06/09 07:30:42;;;;;;;9.43;4.63;;;;;;;16.11;99.58;101229.06;5107523;28;20032;-58
2022/06/09 07:33:09;;;;;;;10.88;3.40;;;;;;;16.19;96.87;101222.66;5107147;28;20019;-59
2022/06/09 07:35:36;;;;;;;8.65;3.08;;;;;;;16.30;95.91;101220.53;5108856;28;20033;-60
2022/06/09 07:38:04;;;;;;;7.20;2.85;;;;;;;16.62;95.39;101232.72;5107384;28;20039;-58
2022/06/09 07:40:30;;;;;;;5.55;2.78;;;;;;;16.66;92.70;101229.13;5106899;28;20039;-60
2022/06/09 07:42:56;;;;;;;6.75;2.47;;;;;;;16.83;93.94;101231.22;5108448;28;20388;-59
2022/06/09 07:45:23;;;;;;;9.48;2.63;;;;;;;16.89;91.63;101223.09;5108274;28;20028;-58
2022/06/09 07:47:49;;;;;;;5.82;2.40;;;;;;;17.13;91.09;101221.41;5106543;28;20024;-58
2022/06/09 07:50:15;;;;;;;6.68;2.10;;;;;;;17.18;89.16;101226.50;5107877;28;20061;-59
2022/06/09 07:52:41;;;;;;;3.55;1.90;;;;;;;17.24;88.57;101218.38;5107694;28;20047;-58
2022/06/09 07:55:07;;;;;;;3.78;1.58;;;;;;;17.31;88.40;101226.06;5105922;28;20039;-58
2022/06/09 07:57:33;;;;;;;3.72;1.60;;;;;;;17.41;88.33;101221.28;5108267;28;20062;-59
2022/06/09 07:59:59;;;;;;;3.00;1.77;;;;;;;17.62;88.00;101233.75;5108960;28;20043;-59
2022/06/09 08:02:25;;;;;;;2.53;1.27;;;;;;;17.59;84.22;101230.34;5108425;28;20046;-58
2022/06/09 08:04:50;;;;;;;3.80;1.45;;;;;;;17.55;84.41;101234.88;5106517;28;20475;-58
2022/06/09 08:07:16;;;;;;;3.03;1.65;;;;;;;17.57;85.48;101240.13;5107388;28;20020;-57
2022/06/09 08:09:41;;;;;;;4.53;1.60;;;;;;;17.67;85.47;101242.41;5107916;28;20093;-59
2022/06/09 08:12:07;;;;;;;5.90;1.90;;;;;;;17.71;86.15;101249.31;5105877;28;20488;-57
2022/06/09 08:14:32;;;;;;;7.15;1.90;;;;;;;17.74;84.44;101253.66;5107342;28;20023;-58
2022/06/09 08:16:58;;;;;;;4.50;2.08;;;;;;;17.78;83.75;101254.41;5107341;28;20081;-56
2022/06/09 08:19:23;;;;;;;6.78;1.90;;;;;;;17.76;83.73;101250.94;5105879;28;20024;-57
2022/06/09 08:21:49;;;;;;;4.63;1.98;;;;;;;17.87;85.28;101260.22;5108058;28;20028;-57
2022/06/09 08:24:15;;;;;;;5.70;2.40;;;;;;;17.80;85.11;101253.44;5107190;28;20038;-52
2022/06/09 08:26:40;;;;;;;6.35;2.17;;;;;;;17.64;83.67;101263.72;5096899;28;20087;-55
2022/06/09 08:29:06;;;;;;;3.53;1.88;;;;;;;17.51;83.95;101265.00;5097024;28;20512;-52
2022/06/09 08:31:31;;;;;;;4.60;1.95;;;;;;;17.38;83.81;101266.38;5104890;28;20499;-56
2022/06/09 08:33:57;;;;;;;4.78;1.83;;;;;;;17.34;83.14;101285.91;5106502;28;20119;-57
2022/06/09 08:36:22;;;;;;;3.10;1.80;;;;;;;17.28;81.50;101284.34;5106126;28;20051;-57
2022/06/09 08:38:48;;;;;;;5.35;1.90;;;;;;;17.32;85.66;101285.09;5106556;28;20024;-55
2022/06/09 08:41:46;;;;;;;4.50;1.98;;;;;;;17.48;85.43;101282.81;5104836;28;20032;-56
2022/06/09 08:44:44;;;;;;;7.78;2.65;;;;;;;17.83;85.67;101292.19;5051557;28;20058;-58
2022/06/09 08:47:35;;;;;;;5.03;2.10;;;;;;;18.29;86.22;101288.66;5105987;28;20032;-54
2022/06/09 08:50:22;;;;;;;6.13;2.47;;;;;;;18.68;84.04;101292.47;5105036;28;20028;-54
2022/06/09 08:53:10;;;;;;;5.05;2.10;;;;;;;18.71;82.46;101302.03;5106792;28;20517;-56
2022/06/09 08:55:44;;;;;;;4.30;2.10;;;;;;;18.68;80.36;101296.91;5105701;28;20020;-57
2022/06/09 08:58:24;;;;;;;5.65;1.92;;;;;;;18.76;78.10;101294.78;5104953;28;20053;-55
2022/06/09 09:01:10;;;;;;;2.97;1.80;;;;;;;18.77;77.38;101307.13;5105161;28;20046;-55
2022/06/09 09:03:40;;;;;;;2.53;1.60;;;;;;;18.55;76.92;101315.00;5065215;28;20028;-55
2022/06/09 09:06:35;;;;;;;4.93;1.55;;;;;;;18.55;78.98;101312.34;5097616;28;20386;-55
2022/06/09 09:09:12;;;;;;;1.73;1.58;;;;;;;18.51;77.48;101315.22;5110576;28;20031;-55
2022/06/09 09:11:44;;;;;;;5.53;1.90;;;;;;;18.48;76.48;101313.53;5116512;28;20042;-52
2022/06/09 09:14:21;;;;;;;3.03;2.00;;;;;;;18.74;78.45;101315.19;5103498;28;20111;-53
2022/06/09 09:17:16;;;;;;;3.67;1.92;;;;;;;18.72;77.53;101309.94;5103470;28;20224;-53
2022/06/09 09:20:00;;;;;;;3.38;2.22;;;;;;;18.60;78.33;101318.38;5041365;28;20046;-55
2022/06/09 09:23:27;;;;;;;6.85;2.63;;;;;;;18.57;80.49;101326.41;5103732;28;20449;-55
2022/06/09 09:26:03;;;;;;;4.35;2.15;;;;;;;18.65;79.17;101327.03;4997116;28;20417;-52
2022/06/09 09:28:32;;;;;;;5.20;2.00;;;;;;;18.65;77.31;101331.47;5105236;28;20023;-56
2022/06/09 09:31:18;;;;;;;3.70;1.83;;;;;;;18.50;80.01;101329.38;5116440;28;20114;-60
2022/06/09 09:33:45;;;;;;;4.78;2.20;;;;;;;18.25;79.49;101343.56;5116482;28;20382;-58
2022/06/09 09:36:38;;;;;;;7.10;2.20;;;;;;;18.24;81.29;101343.59;5109244;28;20055;-58
2022/06/09 09:39:14;;;;;;;3.47;2.00;;;;;;;18.26;81.18;101347.94;5091890;28;20040;-58
2022/06/09 09:41:41;;;;;;;5.15;2.25;;;;;;;18.53;81.00;101346.00;5095479;28;20068;-58
2022/06/09 09:44:19;;;;;;;3.70;2.40;;;;;;;18.86;80.05;101353.63;5095623;28;20039;-58
2022/06/09 09:47:04;;;;;;;4.90;2.50;;;;;;;19.00;79.89;101346.84;5096047;28;20036;-57
2022/06/09 09:49:40;;;;;;;4.30;2.53;;;;;;;19.05;78.26;101347.50;5095679;28;20028;-60
2022/06/09 09:52:37;;;;;;;5.15;3.10;;;;;;;19.18;79.49;101352.34;5095481;28;20111;-57
2022/06/09 09:55:03;;;;;;;6.80;2.90;;;;;;;19.13;78.81;101352.53;5095329;28;20032;-59
2022/06/09 09:57:29;;;;;;;6.35;2.75;;;;;;;19.18;77.63;101360.28;5095432;28;20040;-58
2022/06/09 09:59:58;;;;;;;6.40;3.22;;;;;;;19.50;77.83;101369.63;5095371;28;20072;-59
2022/06/09 10:08:37;;;;;;;6.95;2.80;;;;;;;19.45;79.79;101367.09;5098456;28;20054;-59
2022/06/09 10:11:53;;;;;;;4.63;3.08;;;;;;;19.27;80.35;101378.47;5115695;28;20031;-58
2022/06/09 10:13:52;;;;;;;5.72;3.20;;;;;;;18.94;81.09;101388.66;5115540;28;20071;-60
2022/06/09 10:16:20;;;;;;;11.98;4.97;;;;;;;18.40;89.13;101398.63;5104443;28;20113;-57
2022/06/09 10:18:50;;;;;;;15.00;6.47;;;;;;;17.48;98.07;101396.59;5095269;28;20056;-61
2022/06/09 10:21:16;;;;;;;13.73;7.72;;;;;;;16.82;100.00;101389.84;5095087;28;20096;-58
2022/06/09 10:23:52;;;;;;;15.70;7.75;;;;;;;16.51;100.00;101396.03;5095344;28;20032;-58
2022/06/09 10:26:24;;;;;;;8.88;6.78;;;;;;;16.30;100.00;101404.56;5094233;28;20062;-58
2022/06/09 10:29:16;;;;;;;11.40;6.90;;;;;;;16.26;100.00;101405.56;5094850;28;20127;-59
2022/06/09 10:32:03;;;;;;;9.43;8.43;;;;;;;16.25;100.00;101407.34;5094856;28;20052;-61
2022/06/09 10:34:48;;;;;;;13.32;10.38;;;;;;;16.38;100.00;101409.63;5094823;28;20370;-59
2022/06/09 10:37:24;;;;;;;14.20;11.10;;;;;;;16.44;100.00;101406.84;5111799;28;20434;-59
2022/06/09 10:40:06;;;;;;;14.75;12.65;;;;;;;16.65;100.00;101412.38;5115326;28;20035;-60
2022/06/09 10:43:02;;;;;;;17.98;16.20;;;;;;;17.00;100.00;101413.09;5115503;28;20465;-62
2022/06/09 10:45:46;;;;;;;21.17;18.80;;;;;;;17.54;100.00;101415.75;5115271;28;20032;-59
2022/06/09 10:57:23;;;;;;;14.40;12.30;;;;;;;18.38;100.00;101424.31;5114898;28;20069;-60
2022/06/09 11:00:04;;;;;;;12.00;10.77;;;;;;;18.51;100.00;101419.44;5114782;28;20035;-61
2022/06/09 11:02:31;;;;;;;13.37;11.50;;;;;;;18.70;100.00;101419.66;5114602;28;20111;-60
2022/06/09 11:04:58;;;;;;;9.95;7.85;;;;;;;18.64;92.97;101420.75;5103760;28;20023;-61
2022/06/09 11:07:45;;;;;;;10.43;6.03;;;;;;;18.68;98.34;101425.03;5103275;28;20442;-60
2022/06/09 11:10:42;;;;;;;8.23;5.30;;;;;;;18.76;96.91;101422.94;5102287;28;20049;-63
2022/06/09 11:13:28;;;;;;;8.68;5.55;;;;;;;19.01;96.71;101429.94;5102827;28;20051;-60
2022/06/09 11:16:07;;;;;;;6.25;4.47;;;;;;;18.94;93.41;101429.31;5107026;28;20047;-59
2022/06/09 11:18:41;;;;;;;10.48;4.65;;;;;;;19.20;91.77;101428.31;5115171;28;20035;-60
2022/06/09 11:21:22;;;;;;;7.32;4.30;;;;;;;19.18;91.95;101431.94;5115097;28;20039;-59
2022/06/09 11:24:09;;;;;;;9.23;4.40;;;;;;;19.36;93.25;101428.56;5113734;28;20096;-61
2022/06/09 11:27:10;;;;;;;8.90;3.80;;;;;;;19.40;87.37;101433.66;5094326;28;20052;-60
2022/06/09 11:30:02;;;;;;;6.97;3.50;;;;;;;18.99;88.19;101414.09;5096951;28;20071;-61
2022/06/09 11:32:53;;;;;;;7.15;3.30;;;;;;;18.75;86.56;101431.81;5103348;28;20046;-60
2022/06/09 11:35:25;;;;;;;10.63;3.92;;;;;;;18.75;86.71;101438.88;5056514;28;20092;-60
2022/06/09 11:38:06;;;;;;;8.05;3.38;;;;;;;18.61;88.16;101444.72;5105280;28;20081;-61
2022/06/09 11:40:38;;;;;;;5.60;2.97;;;;;;;18.36;81.38;101455.28;5097792;28;20101;-61
2022/06/09 11:43:25;;;;;;;9.73;3.67;;;;;;;18.19;88.26;101454.16;5098046;28;20031;-60
2022/06/09 11:46:01;;;;;;;5.78;3.05;;;;;;;18.07;84.70;101469.59;5097726;28;20433;-60
2022/06/09 11:48:32;;;;;;;8.93;3.67;;;;;;;18.03;85.24;101469.72;5098592;28;20105;-59
2022/06/09 11:51:00;;;;;;;7.97;3.20;;;;;;;18.01;87.05;101477.72;5106123;28;20028;-60
2022/06/09 11:53:29;;;;;;;7.00;3.10;;;;;;;17.82;83.85;101459.88;5114930;28;20030;-61